Time;durP1;ratioP1;P1;durP2;ratioP2;P2;SDS_P1;SDS_P2;PMS_P1;PMS_P2;Temp;Humidity;BMP_temperature;BMP_pressure;BME280_temperature;BME280_humidity;BME280_pressure;Samples;Min_cycle;Max_cycle;Signal;HPM_P1;HPM_P2
2023/12/20 00:01:33;;;;;;;2.65;2.10;;;10.50;81.10;;;;;;4979567;28;20030;-79
2023/12/20 00:03:59;;;;;;;2.33;1.90;;;10.50;81.10;;;;;;4995546;28;20053;-79
2023/12/20 00:06:24;;;;;;;2.22;1.70;;;10.40;81.10;;;;;;4978897;28;20475;-79
2023/12/20 00:08:50;;;;;;;2.67;1.85;;;10.40;81.10;;;;;;4979499;28;20089;-79
2023/12/20 00:11:16;;;;;;;1.98;1.65;;;10.40;81.10;;;;;;4978823;28;20496;-79
2023/12/20 00:13:42;;;;;;;3.58;1.98;;;10.40;81.10;;;;;;4979269;28;20039;-78
2023/12/20 00:16:08;;;;;;;2.28;1.70;;;10.40;81.10;;;;;;4979671;28;20113;-79
2023/12/20 00:18:33;;;;;;;2.10;1.65;;;10.40;81.10;;;;;;4995764;28;20491;-79
2023/12/20 00:20:59;;;;;;;2.53;1.65;;;10.30;81.10;;;;;;4996048;28;20040;-79
2023/12/20 00:23:25;;;;;;;2.08;1.73;;;10.30;81.10;;;;;;4980407;28;20041;-78
2023/12/20 00:25:51;;;;;;;2.15;1.60;;;10.30;81.10;;;;;;4995400;28;20057;-79
2023/12/20 00:28:16;;;;;;;1.88;1.65;;;10.30;81.10;;;;;;4995949;28;20463;-80
2023/12/20 00:30:42;;;;;;;2.58;1.92;;;10.20;81.10;;;;;;4996272;28;20038;-79
2023/12/20 00:33:08;;;;;;;1.88;1.60;;;10.20;81.10;;;;;;4979065;28;20403;-79
2023/12/20 00:35:34;;;;;;;3.08;1.90;;;10.20;81.20;;;;;;4979121;28;20037;-76
2023/12/20 00:38:00;;;;;;;2.22;1.77;;;10.20;81.80;;;;;;4978883;28;20113;-79
2023/12/20 00:40:25;;;;;;;2.42;1.80;;;10.20;81.10;;;;;;4978711;28;20037;-79
2023/12/20 00:42:51;;;;;;;2.20;1.40;;;10.20;81.10;;;;;;4978531;28;20029;-79
2023/12/20 00:45:17;;;;;;;2.05;1.58;;;10.20;81.10;;;;;;4978609;28;20164;-80
2023/12/20 00:47:45;;;;;;;2.08;1.60;;;10.20;81.10;;;;;;4995135;28;20027;-80
2023/12/20 00:50:11;;;;;;;2.95;1.70;;;10.10;81.10;;;;;;4995444;28;20483;-80
2023/12/20 00:52:37;;;;;;;1.83;1.40;;;10.10;81.10;;;;;;4994911;28;20037;-80
2023/12/20 00:55:03;;;;;;;1.77;1.63;;;10.10;81.20;;;;;;4979234;28;20041;-81
2023/12/20 00:57:29;;;;;;;2.88;1.75;;;10.10;81.10;;;;;;4995518;28;20041;-79
2023/12/20 00:59:55;;;;;;;2.78;1.75;;;10.10;81.10;;;;;;4994990;28;20543;-79
2023/12/20 01:02:21;;;;;;;2.85;1.77;;;10.10;81.10;;;;;;4994521;28;20483;-79
2023/12/20 01:04:46;;;;;;;2.75;1.70;;;10.10;81.10;;;;;;4994511;28;20109;-79
2023/12/20 01:07:12;;;;;;;1.55;1.38;;;10.10;81.20;;;;;;4996440;28;20037;-80
2023/12/20 01:09:38;;;;;;;2.17;1.60;;;10.00;81.10;;;;;;4994398;28;20447;-76
2023/12/20 01:12:04;;;;;;;2.20;1.40;;;10.00;81.10;;;;;;4977002;28;20065;-75
2023/12/20 01:14:30;;;;;;;3.35;2.20;;;10.00;81.20;;;;;;4993406;28;20109;-75
2023/12/20 01:16:56;;;;;;;2.88;1.73;;;10.00;81.20;;;;;;4994104;28;20440;-75
2023/12/20 01:19:22;;;;;;;2.97;1.63;;;9.90;81.10;;;;;;4976790;28;20432;-75
2023/12/20 01:21:48;;;;;;;2.00;1.60;;;9.90;81.10;;;;;;4976778;28;20129;-75
2023/12/20 01:24:13;;;;;;;2.80;1.65;;;9.90;81.10;;;;;;4977036;28;20121;-75
2023/12/20 01:26:39;;;;;;;2.78;1.80;;;9.90;81.10;;;;;;4976958;28;20482;-75
2023/12/20 01:29:05;;;;;;;2.15;1.63;;;9.90;81.10;;;;;;4976712;28;20033;-75
2023/12/20 01:31:31;;;;;;;2.22;1.60;;;9.90;81.20;;;;;;4992953;28;20129;-75
2023/12/20 01:33:56;;;;;;;2.75;1.58;;;9.80;81.10;;;;;;4993178;28;20085;-75
2023/12/20 01:36:22;;;;;;;2.47;1.63;;;9.90;81.20;;;;;;4977217;28;20093;-75
2023/12/20 01:38:48;;;;;;;2.97;1.70;;;9.80;81.20;;;;;;4977066;28;20515;-75
2023/12/20 01:41:13;;;;;;;2.95;1.70;;;9.80;81.20;;;;;;4992684;28;20040;-75
2023/12/20 01:43:39;;;;;;;2.67;1.65;;;9.80;81.20;;;;;;4976505;28;20049;-76
2023/12/20 01:46:05;;;;;;;2.08;1.45;;;9.80;81.20;;;;;;4976698;28;20478;-76
2023/12/20 01:48:34;;;;;;;2.13;1.52;;;9.80;81.30;;;;;;4977042;28;20034;-74
2023/12/20 01:51:00;;;;;;;2.50;1.50;;;9.70;81.30;;;;;;4993036;28;20042;-75
2023/12/20 01:53:27;;;;;;;2.35;1.67;;;9.70;81.30;;;;;;4976885;28;20023;-75
2023/12/20 01:55:55;;;;;;;1.58;1.48;;;9.70;81.30;;;;;;4976546;28;20037;-75
2023/12/20 01:58:21;;;;;;;1.50;1.40;;;9.70;81.40;;;;;;4977236;28;20501;-75
2023/12/20 02:00:48;;;;;;;3.03;1.45;;;9.70;81.30;;;;;;4992528;28;20034;-75
2023/12/20 02:03:14;;;;;;;2.33;1.38;;;9.60;81.30;;;;;;4976292;28;20031;-75
2023/12/20 02:05:40;;;;;;;2.17;1.60;;;9.60;81.30;;;;;;4976628;28;20488;-75
2023/12/20 02:08:07;;;;;;;2.17;1.58;;;9.60;81.30;;;;;;4977187;28;20035;-76
2023/12/20 02:10:32;;;;;;;2.22;1.45;;;9.60;81.30;;;;;;4976019;28;20090;-75
2023/12/20 02:12:58;;;;;;;2.25;1.60;;;9.60;81.30;;;;;;4992521;28;20077;-75
2023/12/20 02:15:24;;;;;;;2.63;1.88;;;9.60;81.30;;;;;;4976144;28;20069;-75
2023/12/20 02:17:50;;;;;;;2.95;1.70;;;9.60;81.40;;;;;;4981385;28;20483;-75
2023/12/20 02:20:16;;;;;;;3.00;1.30;;;9.50;81.40;;;;;;4983721;28;20030;-75
2023/12/20 02:22:42;;;;;;;2.70;1.70;;;9.50;81.40;;;;;;4999778;28;20037;-75
2023/12/20 02:25:08;;;;;;;2.92;1.45;;;9.50;81.40;;;;;;4982779;28;20088;-76
2023/12/20 02:27:35;;;;;;;1.92;1.40;;;9.50;81.40;;;;;;4982854;28;20030;-75
2023/12/20 02:30:00;;;;;;;2.45;1.55;;;9.50;81.50;;;;;;5000606;28;20495;-75
2023/12/20 02:32:27;;;;;;;2.40;1.38;;;9.50;81.50;;;;;;4982943;28;20035;-75
2023/12/20 02:34:53;;;;;;;3.78;1.42;;;9.40;81.40;;;;;;4983066;28;20391;-75
2023/12/20 02:37:19;;;;;;;2.58;1.50;;;9.40;81.40;;;;;;4982920;28;20034;-75
2023/12/20 02:39:45;;;;;;;2.72;1.52;;;9.40;81.40;;;;;;4982824;28;20037;-75
2023/12/20 02:42:10;;;;;;;3.30;1.60;;;9.40;81.40;;;;;;4982731;28;20064;-75
2023/12/20 02:44:36;;;;;;;2.60;1.42;;;9.40;81.40;;;;;;4998833;28;20097;-75
2023/12/20 02:47:03;;;;;;;1.65;1.30;;;9.40;81.50;;;;;;4982603;28;20034;-75
2023/12/20 02:49:30;;;;;;;3.42;1.70;;;9.40;81.50;;;;;;4998954;28;20142;-75
2023/12/20 02:51:55;;;;;;;2.08;1.40;;;9.40;81.50;;;;;;4982515;28;20034;-75
2023/12/20 02:54:21;;;;;;;1.98;1.35;;;9.40;81.40;;;;;;4982822;28;20030;-75
2023/12/20 02:56:48;;;;;;;1.73;1.60;;;9.40;81.50;;;;;;4982567;28;20041;-75
2023/12/20 02:59:13;;;;;;;1.70;1.30;;;9.30;81.40;;;;;;4982403;28;20062;-75
2023/12/20 03:01:44;;;;;;;2.25;1.42;;;9.30;81.50;;;;;;4982614;28;20064;-75
2023/12/20 03:04:11;;;;;;;2.45;1.60;;;9.30;81.50;;;;;;4982002;28;20041;-76
2023/12/20 03:06:37;;;;;;;1.50;1.40;;;9.30;81.50;;;;;;4999105;28;20053;-75
2023/12/20 03:09:03;;;;;;;1.85;1.30;;;9.30;81.50;;;;;;4982366;28;20077;-75
2023/12/20 03:11:29;;;;;;;2.63;1.33;;;9.30;81.60;;;;;;4966445;28;20157;-75
2023/12/20 03:13:57;;;;;;;1.67;1.40;;;9.30;81.60;;;;;;4998345;28;20491;-76
2023/12/20 03:16:23;;;;;;;2.58;1.40;;;9.30;81.60;;;;;;4998486;28;20038;-75
2023/12/20 03:18:48;;;;;;;2.35;1.55;;;9.30;81.60;;;;;;4998523;28;20481;-75
2023/12/20 03:21:14;;;;;;;1.80;1.30;;;9.30;81.60;;;;;;4998329;28;20034;-76
2023/12/20 03:23:40;;;;;;;3.10;1.45;;;9.30;81.60;;;;;;4982511;28;20427;-75
2023/12/20 03:26:10;;;;;;;2.10;1.63;;;9.20;81.50;;;;;;4982422;28;20041;-74
2023/12/20 03:28:38;;;;;;;2.88;1.38;;;9.30;81.60;;;;;;4996217;28;20161;-76
2023/12/20 03:31:04;;;;;;;2.15;1.60;;;9.30;81.60;;;;;;4979129;28;20043;-74
2023/12/20 03:33:30;;;;;;;2.47;1.40;;;9.20;81.60;;;;;;4963018;28;20027;-75
2023/12/20 03:35:56;;;;;;;2.00;1.58;;;9.20;81.60;;;;;;4979364;28;20042;-75
2023/12/20 03:38:23;;;;;;;2.65;1.45;;;9.20;81.60;;;;;;4995259;28;20340;-75
2023/12/20 03:40:50;;;;;;;2.55;1.40;;;9.20;81.60;;;;;;4979080;28;20121;-75
2023/12/20 03:43:16;;;;;;;2.50;1.48;;;9.20;81.60;;;;;;4996439;28;20031;-75
2023/12/20 03:45:42;;;;;;;2.03;1.70;;;9.20;81.60;;;;;;4978967;28;20045;-76
2023/12/20 03:48:08;;;;;;;3.85;1.63;;;9.20;81.60;;;;;;4995418;28;20038;-75
2023/12/20 03:50:34;;;;;;;1.80;1.50;;;9.20;82.30;;;;;;4979423;28;20047;-75
2023/12/20 03:53:00;;;;;;;2.28;1.40;;;9.20;81.60;;;;;;4978818;28;20043;-75
2023/12/20 03:55:26;;;;;;;2.50;1.60;;;9.20;81.60;;;;;;4994989;28;20041;-75
2023/12/20 03:57:51;;;;;;;2.08;1.50;;;9.20;81.60;;;;;;4979474;28;20030;-76
2023/12/20 04:00:17;;;;;;;2.70;1.85;;;9.20;81.60;;;;;;4979554;28;20030;-75
2023/12/20 04:02:43;;;;;;;2.25;1.55;;;9.20;81.60;;;;;;4995634;28;20026;-75
2023/12/20 04:05:10;;;;;;;3.17;1.50;;;9.20;81.60;;;;;;4994924;28;20038;-75
2023/12/20 04:07:36;;;;;;;2.50;1.40;;;9.10;81.60;;;;;;4978549;28;20036;-75
2023/12/20 04:10:03;;;;;;;3.60;1.73;;;9.10;81.60;;;;;;4978550;28;20035;-75
2023/12/20 04:12:30;;;;;;;2.38;1.63;;;9.10;81.60;;;;;;4978371;28;20483;-74
2023/12/20 04:14:56;;;;;;;2.75;1.42;;;9.20;81.70;;;;;;4978128;28;20035;-75
2023/12/20 04:17:25;;;;;;;1.88;1.35;;;9.10;81.70;;;;;;4978269;28;20524;-75
2023/12/20 04:19:51;;;;;;;2.60;1.40;;;9.10;81.60;;;;;;4978993;28;20041;-75
2023/12/20 04:22:18;;;;;;;3.45;1.95;;;9.10;81.60;;;;;;4994833;28;20042;-74
2023/12/20 04:24:44;;;;;;;3.22;1.90;;;9.10;81.60;;;;;;4995357;28;20586;-75
2023/12/20 04:27:10;;;;;;;2.75;1.30;;;9.10;81.60;;;;;;4979024;28;20060;-75
2023/12/20 04:29:36;;;;;;;2.13;1.60;;;9.10;81.70;;;;;;4994697;28;20042;-75
2023/12/20 04:32:02;;;;;;;2.28;1.48;;;9.10;81.60;;;;;;4978822;28;20039;-75
2023/12/20 04:34:28;;;;;;;2.17;1.55;;;9.10;81.70;;;;;;4994473;28;20034;-75
2023/12/20 04:36:54;;;;;;;3.83;1.60;;;9.10;81.70;;;;;;4993959;28;20030;-75
2023/12/20 04:39:19;;;;;;;1.60;1.50;;;9.10;81.70;;;;;;4994661;28;20041;-75
2023/12/20 04:41:47;;;;;;;3.85;2.00;;;9.00;81.60;;;;;;4994348;28;20452;-76
2023/12/20 04:44:13;;;;;;;1.92;1.30;;;9.10;81.70;;;;;;4978059;28;20034;-75
2023/12/20 04:46:39;;;;;;;2.67;1.50;;;9.10;81.70;;;;;;4994987;28;20034;-75
2023/12/20 04:49:05;;;;;;;2.22;1.50;;;9.00;81.60;;;;;;4994050;28;20494;-75
2023/12/20 04:51:33;;;;;;;2.88;1.67;;;9.10;81.70;;;;;;4994044;28;20034;-74
2023/12/20 04:53:59;;;;;;;2.05;1.70;;;9.00;81.70;;;;;;4977636;28;20372;-75
2023/12/20 04:56:26;;;;;;;1.65;1.42;;;9.00;81.60;;;;;;4977857;28;20031;-75
2023/12/20 04:58:52;;;;;;;2.70;1.60;;;9.00;81.60;;;;;;4977622;28;20041;-75
2023/12/20 05:01:18;;;;;;;1.63;1.40;;;9.00;81.70;;;;;;4977560;28;20058;-75
2023/12/20 05:03:43;;;;;;;2.70;1.67;;;9.00;81.70;;;;;;4977463;28;20099;-75
2023/12/20 05:06:10;;;;;;;2.78;1.58;;;9.00;81.70;;;;;;4977416;28;20026;-75
2023/12/20 05:08:36;;;;;;;1.73;1.40;;;9.00;81.70;;;;;;4993811;28;20027;-75
2023/12/20 05:11:02;;;;;;;1.42;1.33;;;9.00;81.70;;;;;;4993380;28;20053;-75
2023/12/20 05:13:28;;;;;;;2.05;1.42;;;9.00;82.30;;;;;;4977965;28;20485;-75
2023/12/20 05:15:53;;;;;;;2.40;1.40;;;9.00;81.70;;;;;;4978134;28;20121;-75
2023/12/20 05:18:21;;;;;;;2.15;1.30;;;9.00;81.70;;;;;;4993186;28;20030;-75
2023/12/20 05:20:47;;;;;;;2.30;1.60;;;9.00;82.30;;;;;;4993820;28;20049;-74
2023/12/20 05:23:13;;;;;;;2.28;1.48;;;9.00;81.60;;;;;;4977596;28;20038;-75
2023/12/20 05:25:39;;;;;;;2.03;1.50;;;9.00;81.70;;;;;;4977338;28;20469;-75
2023/12/20 05:28:05;;;;;;;2.47;1.40;;;9.00;81.60;;;;;;4977037;28;20027;-75
2023/12/20 05:30:31;;;;;;;2.60;1.58;;;9.00;81.70;;;;;;4993463;28;20030;-75
2023/12/20 05:32:57;;;;;;;1.90;1.67;;;9.00;81.70;;;;;;4977007;28;20042;-75
2023/12/20 05:35:23;;;;;;;3.40;1.50;;;9.00;81.60;;;;;;4992992;28;20440;-75
2023/12/20 05:37:49;;;;;;;2.85;1.70;;;9.00;81.60;;;;;;4976871;28;20092;-75
2023/12/20 05:40:15;;;;;;;2.75;1.40;;;9.00;81.60;;;;;;4976900;28;20026;-76
2023/12/20 05:42:41;;;;;;;4.07;1.40;;;9.00;81.60;;;;;;4976796;28;20391;-75
2023/12/20 05:45:07;;;;;;;3.17;1.65;;;9.00;81.70;;;;;;4976835;28;20030;-75
2023/12/20 05:47:33;;;;;;;3.63;1.83;;;9.00;81.70;;;;;;4977566;28;20026;-75
2023/12/20 05:49:59;;;;;;;3.00;1.63;;;9.00;81.70;;;;;;4976565;28;20498;-74
2023/12/20 05:52:24;;;;;;;2.40;1.50;;;9.00;81.60;;;;;;4976620;28;20116;-75
2023/12/20 05:54:50;;;;;;;3.80;1.67;;;9.00;81.60;;;;;;4992934;28;20034;-75
2023/12/20 05:57:16;;;;;;;3.22;1.70;;;9.00;81.60;;;;;;4992695;28;20026;-75
2023/12/20 05:59:42;;;;;;;3.33;1.80;;;9.00;81.60;;;;;;4992785;28;20034;-75
2023/12/20 06:02:08;;;;;;;2.78;1.48;;;9.00;81.70;;;;;;4976315;28;20026;-76
2023/12/20 06:04:33;;;;;;;3.03;1.60;;;9.00;81.60;;;;;;4976762;28;20030;-76
2023/12/20 06:06:59;;;;;;;3.15;1.52;;;9.00;81.70;;;;;;4976764;28;20458;-75
2023/12/20 06:09:28;;;;;;;2.90;1.77;;;9.00;81.60;;;;;;4992704;28;20035;-76
2023/12/20 06:11:54;;;;;;;2.05;1.45;;;9.00;81.70;;;;;;4975711;28;20065;-75
2023/12/20 06:14:20;;;;;;;4.15;1.63;;;9.00;81.60;;;;;;4976869;28;20043;-75
2023/12/20 06:16:46;;;;;;;3.75;1.52;;;9.00;81.60;;;;;;4976465;28;20038;-76
2023/12/20 06:19:12;;;;;;;2.65;1.40;;;9.00;81.60;;;;;;4976649;28;20061;-76
2023/12/20 06:21:37;;;;;;;3.30;1.60;;;9.10;81.70;;;;;;4993546;28;20092;-75
2023/12/20 06:24:04;;;;;;;1.70;1.35;;;9.10;81.70;;;;;;4976231;28;20134;-76
2023/12/20 06:26:29;;;;;;;2.90;1.60;;;9.10;81.70;;;;;;4977052;28;20041;-75
2023/12/20 06:28:55;;;;;;;2.83;1.30;;;9.10;81.60;;;;;;4976275;28;20031;-75
2023/12/20 06:31:21;;;;;;;1.95;1.38;;;9.10;81.60;;;;;;4960375;28;20030;-75
2023/12/20 06:33:47;;;;;;;2.13;1.60;;;9.10;81.60;;;;;;4976894;28;20395;-76
2023/12/20 06:36:13;;;;;;;2.72;1.50;;;9.10;81.60;;;;;;4992451;28;20031;-76
2023/12/20 06:38:39;;;;;;;2.53;1.60;;;9.10;81.60;;;;;;4992395;28;20121;-75
2023/12/20 06:41:06;;;;;;;2.95;1.45;;;9.10;81.60;;;;;;4976802;28;20042;-76
2023/12/20 06:43:32;;;;;;;3.05;1.75;;;9.10;81.60;;;;;;4976115;28;20037;-75
2023/12/20 06:45:58;;;;;;;3.60;1.52;;;9.10;81.60;;;;;;4976138;28;20061;-76
2023/12/20 06:48:24;;;;;;;2.95;1.55;;;9.10;81.60;;;;;;4976100;28;20040;-75
2023/12/20 06:50:50;;;;;;;4.57;1.75;;;9.10;81.60;;;;;;4992466;28;20125;-76
2023/12/20 06:53:16;;;;;;;5.00;1.58;;;9.10;81.60;;;;;;4992358;28;20035;-76
2023/12/20 06:55:42;;;;;;;3.30;1.42;;;9.10;81.60;;;;;;4976057;28;20034;-76
2023/12/20 06:58:08;;;;;;;2.50;1.40;;;9.20;81.70;;;;;;4992949;28;20454;-76
2023/12/20 07:00:34;;;;;;;2.35;1.50;;;9.10;81.60;;;;;;4992105;28;20038;-75
2023/12/20 07:03:00;;;;;;;2.55;1.50;;;9.20;81.60;;;;;;4976866;28;20026;-75
2023/12/20 07:05:26;;;;;;;2.35;1.52;;;9.20;81.60;;;;;;4980145;28;20053;-76
2023/12/20 07:07:52;;;;;;;2.40;1.67;;;9.20;81.60;;;;;;4980320;28;20040;-76
2023/12/20 07:10:18;;;;;;;2.33;1.50;;;9.20;81.60;;;;;;4979401;28;20110;-76
2023/12/20 07:12:44;;;;;;;3.80;1.73;;;9.20;81.60;;;;;;4996154;28;20440;-75
2023/12/20 07:15:10;;;;;;;4.70;1.48;;;9.20;81.60;;;;;;4996029;28;20034;-76
2023/12/20 07:17:35;;;;;;;3.38;1.70;;;9.20;81.60;;;;;;4979170;28;20054;-76
2023/12/20 07:20:03;;;;;;;2.80;1.58;;;9.20;81.60;;;;;;4979309;28;20535;-75
2023/12/20 07:22:33;;;;;;;3.20;1.67;;;9.20;81.60;;;;;;4979812;28;20064;-77
2023/12/20 07:25:00;;;;;;;2.53;1.52;;;9.20;81.60;;;;;;4995790;28;20133;-75
2023/12/20 07:27:26;;;;;;;1.65;1.38;;;9.20;81.60;;;;;;4963385;28;20031;-76
2023/12/20 07:29:52;;;;;;;4.82;1.70;;;9.20;81.60;;;;;;4979431;28;20426;-76
2023/12/20 07:32:18;;;;;;;4.53;1.90;;;9.20;81.60;;;;;;4979177;28;20039;-76
2023/12/20 07:34:44;;;;;;;5.05;1.50;;;9.20;81.60;;;;;;4979126;28;20533;-76
2023/12/20 07:37:11;;;;;;;1.95;1.38;;;9.30;81.70;;;;;;4995650;28;20034;-76
2023/12/20 07:39:41;;;;;;;3.40;1.77;;;9.30;81.60;;;;;;4995354;28;20034;-76
2023/12/20 07:42:07;;;;;;;4.15;1.67;;;9.30;81.70;;;;;;4995032;28;20042;-76
2023/12/20 07:44:33;;;;;;;2.15;1.73;;;9.30;81.60;;;;;;4979210;28;20026;-76
2023/12/20 07:47:00;;;;;;;2.70;1.55;;;9.30;81.60;;;;;;4978771;28;20037;-75
2023/12/20 07:49:26;;;;;;;3.17;1.60;;;9.20;81.60;;;;;;4978571;28;20042;-76
2023/12/20 07:51:52;;;;;;;2.15;1.35;;;9.30;81.60;;;;;;4978711;28;20039;-75
2023/12/20 07:54:18;;;;;;;3.42;1.90;;;9.30;81.60;;;;;;4978498;28;20034;-75
2023/12/20 07:56:43;;;;;;;3.03;2.03;;;9.30;81.60;;;;;;4979047;28;20049;-76
2023/12/20 07:59:09;;;;;;;2.08;1.60;;;9.30;81.60;;;;;;4994956;28;20054;-75
2023/12/20 08:01:35;;;;;;;3.65;1.55;;;9.30;81.60;;;;;;4978577;28;20038;-76
2023/12/20 08:04:02;;;;;;;2.40;1.80;;;9.30;81.60;;;;;;4978696;28;20092;-76
2023/12/20 08:06:28;;;;;;;3.28;1.67;;;9.30;81.60;;;;;;4994559;28;20037;-75
2023/12/20 08:08:53;;;;;;;3.08;1.50;;;9.30;81.50;;;;;;4994654;28;20035;-76
2023/12/20 08:11:19;;;;;;;3.22;1.90;;;9.30;81.50;;;;;;4978440;28;20038;-75
2023/12/20 08:13:45;;;;;;;2.85;1.50;;;9.40;81.60;;;;;;4978466;28;20086;-75
2023/12/20 08:16:13;;;;;;;3.63;1.63;;;9.40;81.60;;;;;;4993754;28;20066;-75
2023/12/20 08:18:39;;;;;;;3.38;1.45;;;9.40;81.60;;;;;;4978355;28;20038;-75
2023/12/20 08:21:07;;;;;;;3.22;1.60;;;9.40;81.60;;;;;;4979347;28;20344;-75
2023/12/20 08:23:34;;;;;;;2.50;1.60;;;9.30;81.50;;;;;;4979093;28;20029;-76
2023/12/20 08:26:07;;;;;;;4.32;1.92;;;9.40;81.60;;;;;;4994839;28;20127;-75
2023/12/20 08:28:33;;;;;;;1.55;1.40;;;9.40;81.60;;;;;;4994645;28;20041;-75
2023/12/20 08:30:59;;;;;;;2.92;1.58;;;9.40;81.60;;;;;;4978416;28;20041;-75
2023/12/20 08:33:25;;;;;;;3.20;1.50;;;9.40;81.60;;;;;;4978989;28;20030;-76
2023/12/20 08:35:50;;;;;;;2.20;1.50;;;9.40;81.60;;;;;;4979055;28;20361;-76
2023/12/20 08:38:17;;;;;;;3.50;1.48;;;9.40;81.60;;;;;;4978118;28;20557;-75
2023/12/20 08:40:43;;;;;;;2.17;1.40;;;9.40;81.50;;;;;;4995641;28;20038;-75
2023/12/20 08:43:09;;;;;;;2.50;1.55;;;9.40;81.50;;;;;;4994801;28;20062;-75
2023/12/20 08:45:35;;;;;;;2.30;1.50;;;9.40;81.50;;;;;;4977916;28;20084;-76
2023/12/20 08:48:02;;;;;;;3.17;1.35;;;9.40;81.50;;;;;;4977800;28;20061;-75
2023/12/20 08:50:28;;;;;;;4.82;1.83;;;9.40;81.50;;;;;;4977958;28;20034;-75
2023/12/20 08:52:54;;;;;;;5.20;1.70;;;9.40;81.50;;;;;;4978209;28;20391;-75
2023/12/20 08:55:19;;;;;;;3.78;1.60;;;9.40;81.50;;;;;;4977752;28;20076;-75
2023/12/20 08:57:45;;;;;;;2.50;1.48;;;9.50;81.60;;;;;;4977407;28;20057;-75
2023/12/20 09:00:12;;;;;;;2.90;1.50;;;9.40;81.50;;;;;;4993718;28;20069;-75
2023/12/20 09:02:37;;;;;;;1.88;1.40;;;9.40;81.50;;;;;;4977309;28;20082;-76
2023/12/20 09:05:03;;;;;;;4.18;1.60;;;9.50;81.50;;;;;;4993854;28;20046;-75
2023/12/20 09:07:32;;;;;;;3.58;1.75;;;9.50;81.50;;;;;;4977746;28;20035;-76
2023/12/20 09:09:59;;;;;;;2.35;1.60;;;9.50;81.50;;;;;;4977395;28;20042;-75
2023/12/20 09:12:25;;;;;;;3.97;1.70;;;9.50;81.40;;;;;;4977351;28;20059;-75
2023/12/20 09:14:51;;;;;;;3.42;1.60;;;9.50;81.40;;;;;;4977583;28;20471;-74
2023/12/20 09:17:18;;;;;;;2.20;1.70;;;9.50;81.40;;;;;;4994980;28;20105;-75
2023/12/20 09:19:44;;;;;;;3.03;1.70;;;9.50;81.40;;;;;;4977422;28;20026;-76
2023/12/20 09:22:11;;;;;;;3.95;1.83;;;9.50;81.40;;;;;;4993397;28;20061;-75
2023/12/20 09:24:36;;;;;;;2.55;1.42;;;9.60;81.50;;;;;;4976997;28;20049;-75
2023/12/20 09:27:02;;;;;;;2.47;1.58;;;9.60;81.50;;;;;;4992390;28;20030;-76
2023/12/20 09:29:29;;;;;;;2.40;1.60;;;9.50;81.40;;;;;;4994079;28;20029;-75
2023/12/20 09:31:54;;;;;;;3.38;1.67;;;9.60;81.50;;;;;;4992771;28;20073;-75
2023/12/20 09:34:21;;;;;;;3.25;1.58;;;9.60;81.40;;;;;;4977288;28;20034;-76
2023/12/20 09:36:47;;;;;;;5.00;1.60;;;9.60;81.40;;;;;;4993392;28;20400;-75
2023/12/20 09:39:20;;;;;;;4.25;2.33;;;9.60;81.50;;;;;;4994676;28;20037;-75
2023/12/20 09:42:07;;;;;;;4.10;1.70;;;9.60;81.50;;;;;;4994596;28;20062;-75
2023/12/20 09:44:36;;;;;;;2.35;1.45;;;9.60;81.40;;;;;;4993432;28;20109;-76
2023/12/20 09:47:06;;;;;;;2.22;1.50;;;9.60;81.40;;;;;;4976892;28;20061;-75
2023/12/20 09:49:33;;;;;;;3.05;1.40;;;9.60;81.40;;;;;;4977047;28;20032;-75
2023/12/20 09:52:00;;;;;;;3.00;1.67;;;9.60;81.40;;;;;;4977425;28;20114;-75
2023/12/20 09:54:28;;;;;;;3.65;1.80;;;9.60;81.40;;;;;;4993435;28;20061;-74
2023/12/20 09:56:54;;;;;;;5.35;1.83;;;9.70;81.50;;;;;;4993641;28;20034;-75
2023/12/20 09:59:20;;;;;;;2.03;1.30;;;9.60;81.40;;;;;;4992859;28;20039;-74
2023/12/20 10:01:45;;;;;;;6.68;2.15;;;9.60;81.40;;;;;;4992842;28;20026;-75
2023/12/20 10:04:13;;;;;;;3.22;1.90;;;9.70;81.50;;;;;;4976829;28;20116;-74
2023/12/20 10:06:43;;;;;;;4.32;1.60;;;9.70;81.40;;;;;;4993199;28;20130;-75
2023/12/20 10:09:12;;;;;;;3.08;1.42;;;9.70;81.40;;;;;;4977421;28;20034;-75
2023/12/20 10:11:38;;;;;;;3.13;1.30;;;9.70;81.40;;;;;;4976749;28;20387;-74
2023/12/20 10:14:05;;;;;;;3.30;1.55;;;9.70;81.40;;;;;;4992724;28;20402;-75
2023/12/20 10:16:33;;;;;;;2.63;1.67;;;9.70;81.40;;;;;;4992643;28;20035;-74
2023/12/20 10:18:59;;;;;;;3.67;1.70;;;9.70;81.40;;;;;;4992946;28;20097;-74
2023/12/20 10:21:28;;;;;;;2.00;1.30;;;9.70;81.30;;;;;;4993815;28;20042;-74
2023/12/20 10:23:55;;;;;;;3.38;1.52;;;9.80;81.40;;;;;;4993888;28;20498;-75
2023/12/20 10:26:26;;;;;;;4.03;1.60;;;9.80;81.40;;;;;;4992228;28;20455;-75
2023/12/20 10:28:54;;;;;;;4.07;1.70;;;9.80;81.40;;;;;;4992506;28;20043;-75
2023/12/20 10:31:49;;;;;;;4.13;1.75;;;9.80;81.40;;;;;;4992703;28;20486;-75
2023/12/20 10:34:16;;;;;;;2.15;1.38;;;9.80;81.40;;;;;;4980981;28;20038;-75
2023/12/20 10:36:41;;;;;;;1.98;1.50;;;9.80;81.90;;;;;;4992130;28;20038;-75
2023/12/20 10:39:10;;;;;;;3.80;1.60;;;9.80;81.30;;;;;;4978884;28;20419;-75
2023/12/20 10:41:41;;;;;;;3.67;1.83;;;9.80;81.40;;;;;;4996378;28;20042;-75
2023/12/20 10:44:08;;;;;;;2.28;1.55;;;9.80;81.40;;;;;;4979953;28;20551;-75
2023/12/20 10:46:34;;;;;;;3.00;1.67;;;9.80;81.30;;;;;;4979976;28;20060;-76
2023/12/20 10:49:03;;;;;;;4.05;1.77;;;9.80;81.30;;;;;;4995971;28;20042;-75
2023/12/20 10:51:30;;;;;;;3.60;1.65;;;9.80;81.30;;;;;;4997052;28;20042;-75
2023/12/20 10:53:56;;;;;;;2.58;1.70;;;9.80;81.30;;;;;;4979943;28;20042;-75
2023/12/20 10:56:26;;;;;;;3.15;1.70;;;9.80;81.30;;;;;;4979669;28;20080;-75
2023/12/20 10:58:52;;;;;;;2.42;1.50;;;9.80;81.30;;;;;;4980368;28;20034;-76
2023/12/20 11:01:20;;;;;;;2.20;1.30;;;9.80;81.30;;;;;;4980057;28;20022;-75
2023/12/20 11:03:53;;;;;;;2.70;1.50;;;9.90;81.40;;;;;;4996208;28;20030;-76
2023/12/20 11:06:37;;;;;;;2.50;1.55;;;9.90;81.40;;;;;;4997286;28;20035;-75
2023/12/20 11:09:12;;;;;;;2.23;1.57;;;9.90;81.40;;;;;;4980258;28;20422;-75
2023/12/20 11:11:41;;;;;;;2.92;1.40;;;9.90;81.40;;;;;;4995928;28;20041;-75
2023/12/20 11:14:12;;;;;;;2.67;1.70;;;9.90;81.30;;;;;;4995851;28;20058;-76
2023/12/20 11:16:38;;;;;;;3.63;1.60;;;9.90;81.40;;;;;;4996292;28;20037;-76
2023/12/20 11:19:07;;;;;;;3.83;1.55;;;9.90;81.30;;;;;;4979522;28;20043;-75
2023/12/20 11:21:33;;;;;;;2.28;1.48;;;9.90;81.30;;;;;;4979603;28;20042;-75
2023/12/20 11:24:00;;;;;;;3.22;1.67;;;9.90;81.30;;;;;;4995597;28;20033;-75
2023/12/20 11:26:29;;;;;;;2.55;1.50;;;9.90;81.30;;;;;;4963528;28;20023;-75
2023/12/20 11:29:30;;;;;;;3.80;1.65;;;9.90;81.40;;;;;;4979194;28;20129;-75
2023/12/20 11:31:56;;;;;;;3.38;1.60;;;9.90;81.40;;;;;;4995084;28;20136;-75
2023/12/20 11:34:22;;;;;;;2.78;1.60;;;9.90;81.30;;;;;;4979173;28;20058;-75
2023/12/20 11:36:48;;;;;;;3.25;1.80;;;9.90;81.30;;;;;;4995417;28;20040;-75
2023/12/20 11:39:21;;;;;;;3.55;1.52;;;9.90;81.30;;;;;;4995076;28;20038;-74
2023/12/20 11:41:49;;;;;;;2.83;1.65;;;10.00;81.40;;;;;;4979594;28;20074;-74
2023/12/20 11:44:17;;;;;;;4.43;1.55;;;10.00;81.40;;;;;;4979600;28;20065;-74
2023/12/20 11:46:44;;;;;;;3.53;1.67;;;10.00;81.40;;;;;;4994939;28;20468;-74
2023/12/20 11:49:10;;;;;;;3.55;1.60;;;10.00;81.30;;;;;;4995274;28;20488;-76
2023/12/20 11:51:40;;;;;;;1.73;1.40;;;10.00;81.20;;;;;;4978449;28;20114;-75
2023/12/20 11:54:05;;;;;;;3.55;1.50;;;10.00;81.20;;;;;;4995068;28;20085;-75
2023/12/20 11:56:32;;;;;;;3.50;1.55;;;10.10;81.20;;;;;;4979046;28;20446;-75
2023/12/20 11:58:57;;;;;;;2.70;1.33;;;10.10;81.20;;;;;;4978726;28;20034;-75
2023/12/20 12:01:24;;;;;;;3.58;1.60;;;10.10;81.20;;;;;;4978657;28;20038;-75
2023/12/20 12:04:06;;;;;;;2.80;1.45;;;10.10;81.20;;;;;;4996295;28;20456;-76
2023/12/20 12:06:32;;;;;;;3.17;1.55;;;10.10;81.20;;;;;;4996037;28;20117;-75
2023/12/20 12:08:58;;;;;;;2.35;1.50;;;10.10;81.10;;;;;;4978364;28;20034;-74
2023/12/20 12:11:23;;;;;;;2.83;1.45;;;10.10;81.10;;;;;;4978314;28;20042;-75
2023/12/20 12:13:49;;;;;;;2.70;1.52;;;10.20;81.20;;;;;;4977929;28;20130;-76
2023/12/20 12:16:20;;;;;;;4.88;1.85;;;10.20;81.20;;;;;;4994419;28;20113;-75
2023/12/20 12:18:46;;;;;;;3.10;1.80;;;10.20;81.10;;;;;;4995238;28;20069;-75
2023/12/20 12:21:20;;;;;;;3.50;1.73;;;10.20;81.10;;;;;;4979303;28;20477;-77
2023/12/20 12:23:46;;;;;;;1.85;1.52;;;10.20;81.10;;;;;;4978958;28;20035;-75
2023/12/20 12:26:12;;;;;;;3.22;1.35;;;10.20;81.10;;;;;;4978210;28;20474;-76
2023/12/20 12:28:41;;;;;;;3.78;1.58;;;10.20;81.10;;;;;;4978631;28;20026;-75
2023/12/20 12:31:07;;;;;;;3.00;1.63;;;10.20;81.10;;;;;;4978235;28;20034;-77
2023/12/20 12:33:34;;;;;;;3.80;1.50;;;10.20;81.10;;;;;;4978180;28;20037;-76
2023/12/20 12:36:01;;;;;;;3.50;1.80;;;10.20;81.10;;;;;;4978142;28;20034;-76
2023/12/20 12:38:27;;;;;;;2.30;1.30;;;10.20;81.00;;;;;;4978135;28;20038;-75
2023/12/20 12:40:54;;;;;;;4.68;1.75;;;10.30;81.10;;;;;;4978686;28;20442;-75
2023/12/20 12:43:22;;;;;;;2.42;1.45;;;10.30;81.10;;;;;;4978017;28;20077;-75
2023/12/20 12:45:48;;;;;;;4.28;1.88;;;10.30;81.10;;;;;;4978127;28;20058;-76
2023/12/20 12:48:14;;;;;;;2.60;1.60;;;10.30;81.10;;;;;;4978665;28;20530;-77
2023/12/20 12:50:40;;;;;;;3.60;1.63;;;10.30;81.30;;;;;;4993769;28;20126;-76
2023/12/20 12:53:06;;;;;;;2.60;1.45;;;10.30;81.00;;;;;;4978003;28;20122;-76